Time;durP1;ratioP1;P1;durP2;ratioP2;P2;SDS_P1;SDS_P2;PMS_P1;PMS_P2;Temp;Humidity;BMP_temperature;BMP_pressure;BME280_temperature;BME280_humidity;BME280_pressure;Samples;Min_cycle;Max_cycle;Signal;HPM_P1;HPM_P2
2021/08/26 00:01:13;;;;;;;546.35;62.08;;;;;;;;;;4995645;28;20418;-44
2021/08/26 00:06:25;;;;;;;553.30;63.20;;;;;;;;;;5001817;28;20496;-48
2021/08/26 00:08:54;;;;;;;531.08;59.78;;;;;;;;;;5005166;28;20025;-36
2021/08/26 00:11:23;;;;;;;486.13;54.85;;;;;;;;;;5005883;28;20076;-36
2021/08/26 00:13:52;;;;;;;434.98;49.78;;;;;;;;;;5003174;28;20030;-36
2021/08/26 00:16:20;;;;;;;371.02;44.28;;;;;;;;;;5005271;28;20109;-36
2021/08/26 00:18:47;;;;;;;394.27;42.42;;;;;;;;;;5003981;28;20076;-36
2021/08/26 00:21:14;;;;;;;371.77;41.85;;;;;;;;;;5002701;28;20454;-36
2021/08/26 00:23:42;;;;;;;338.33;40.10;;;;;;;;;;4999257;28;20115;-36
2021/08/26 00:26:10;;;;;;;307.05;38.55;;;;;;;;;;5005910;28;20029;-36
2021/08/26 00:28:38;;;;;;;300.02;35.03;;;;;;;;;;5003117;28;20412;-38
2021/08/26 00:31:11;;;;;;;304.92;34.25;;;;;;;;;;5004197;28;20041;-37
2021/08/26 00:33:39;;;;;;;295.88;36.50;;;;;;;;;;4999704;28;20039;-40
2021/08/26 00:36:06;;;;;;;253.02;34.28;;;;;;;;;;4992356;28;20035;-37
2021/08/26 00:38:33;;;;;;;248.30;30.73;;;;;;;;;;5001839;28;20023;-40
2021/08/26 00:41:00;;;;;;;242.77;31.48;;;;;;;;;;5010538;28;20030;-36
2021/08/26 00:43:32;;;;;;;228.32;33.72;;;;;;;;;;5001848;28;20041;-36
2021/08/26 00:45:59;;;;;;;254.35;34.05;;;;;;;;;;5010670;28;20036;-36
2021/08/26 00:48:27;;;;;;;280.60;36.42;;;;;;;;;;5010681;28;20038;-36
2021/08/26 00:50:55;;;;;;;323.58;37.58;;;;;;;;;;5004610;28;20391;-36
2021/08/26 00:53:22;;;;;;;288.42;35.42;;;;;;;;;;5009909;28;20025;-37
2021/08/26 00:55:49;;;;;;;244.10;32.38;;;;;;;;;;5009121;28;20465;-46
2021/08/26 00:58:16;;;;;;;215.90;29.33;;;;;;;;;;5006644;28;20041;-40
2021/08/26 01:00:50;;;;;;;237.60;30.65;;;;;;;;;;5008965;28;20021;-36
2021/08/26 01:03:18;;;;;;;200.70;26.70;;;;;;;;;;5002190;28;20037;-36
2021/08/26 01:05:49;;;;;;;203.90;25.42;;;;;;;;;;5005841;28;20026;-36
2021/08/26 01:08:17;;;;;;;159.80;25.27;;;;;;;;;;5001694;28;20045;-37
2021/08/26 01:10:45;;;;;;;172.43;22.20;;;;;;;;;;5010376;28;20017;-37
2021/08/26 01:13:13;;;;;;;151.88;22.25;;;;;;;;;;5003730;28;20498;-35
2021/08/26 01:16:00;;;;;;;152.98;21.38;;;;;;;;;;5009574;28;20503;-37
2021/08/26 01:18:27;;;;;;;158.27;23.08;;;;;;;;;;5007289;28;20084;-39
2021/08/26 01:20:54;;;;;;;168.70;21.98;;;;;;;;;;5011269;28;20053;-37
2021/08/26 01:23:21;;;;;;;158.15;22.05;;;;;;;;;;5008812;28;20084;-38
2021/08/26 01:25:49;;;;;;;162.65;19.55;;;;;;;;;;5006600;28;20026;-45
2021/08/26 01:28:16;;;;;;;162.63;22.27;;;;;;;;;;5004393;28;20042;-40
2021/08/26 01:30:43;;;;;;;145.07;20.70;;;;;;;;;;5000428;28;20535;-41
2021/08/26 01:33:10;;;;;;;110.82;18.95;;;;;;;;;;4997762;28;20518;-36
2021/08/26 01:35:37;;;;;;;127.70;18.88;;;;;;;;;;4997864;28;20057;-38
2021/08/26 01:38:05;;;;;;;138.90;19.15;;;;;;;;;;5001364;28;20146;-34
2021/08/26 01:40:40;;;;;;;146.02;18.92;;;;;;;;;;4996865;28;20062;-43
2021/08/26 01:43:10;;;;;;;129.80;19.13;;;;;;;;;;5000217;28;20093;-40
2021/08/26 01:45:38;;;;;;;147.70;18.75;;;;;;;;;;4995679;28;20507;-37
2021/08/26 01:48:06;;;;;;;156.15;19.15;;;;;;;;;;4997728;28;20384;-37
2021/08/26 01:50:34;;;;;;;136.00;17.92;;;;;;;;;;5004516;28;20030;-39
2021/08/26 01:53:01;;;;;;;145.02;19.60;;;;;;;;;;5002478;28;20026;-36
2021/08/26 01:55:28;;;;;;;143.68;19.02;;;;;;;;;;5001234;28;20025;-46
2021/08/26 01:57:55;;;;;;;144.93;17.90;;;;;;;;;;5002435;28;20451;-41
2021/08/26 02:00:22;;;;;;;182.75;21.70;;;;;;;;;;5000362;28;20122;-41
2021/08/26 02:02:49;;;;;;;132.57;17.42;;;;;;;;;;5001932;28;20100;-39
2021/08/26 02:05:16;;;;;;;144.75;18.40;;;;;;;;;;5002554;28;20434;-36
2021/08/26 02:07:47;;;;;;;134.68;18.00;;;;;;;;;;5002227;28;20024;-50
2021/08/26 02:10:14;;;;;;;136.13;19.40;;;;;;;;;;4998470;28;20033;-49
2021/08/26 02:12:41;;;;;;;135.35;17.27;;;;;;;;;;5010213;28;20024;-46
2021/08/26 02:15:09;;;;;;;134.50;18.23;;;;;;;;;;5009277;28;20030;-44
2021/08/26 02:17:36;;;;;;;128.02;17.50;;;;;;;;;;5010835;28;20061;-48
2021/08/26 02:20:07;;;;;;;121.28;16.00;;;;;;;;;;5011400;28;20385;-43
2021/08/26 02:22:34;;;;;;;132.13;17.98;;;;;;;;;;5010869;28;20565;-39
2021/08/26 02:25:01;;;;;;;124.18;17.27;;;;;;;;;;5007769;28;20563;-44
2021/08/26 02:27:28;;;;;;;126.60;16.35;;;;;;;;;;5011038;28;20014;-45
2021/08/26 02:29:55;;;;;;;125.20;17.08;;;;;;;;;;5008194;28;20052;-44
2021/08/26 02:32:22;;;;;;;108.38;14.80;;;;;;;;;;5010763;28;20041;-40
2021/08/26 02:34:49;;;;;;;107.10;14.98;;;;;;;;;;5010880;28;20026;-45
2021/08/26 02:37:16;;;;;;;123.97;15.43;;;;;;;;;;5011335;28;20025;-39
2021/08/26 02:39:44;;;;;;;103.85;15.15;;;;;;;;;;5010808;28;20473;-41
2021/08/26 02:42:10;;;;;;;92.90;14.10;;;;;;;;;;5012161;28;20053;-42
2021/08/26 02:44:38;;;;;;;97.82;15.50;;;;;;;;;;5012155;28;20503;-43
2021/08/26 02:47:05;;;;;;;92.68;13.80;;;;;;;;;;5012006;28;20029;-50
2021/08/26 02:49:32;;;;;;;99.78;14.52;;;;;;;;;;5012251;28;20077;-41
2021/08/26 02:51:59;;;;;;;87.18;15.80;;;;;;;;;;5011884;28;20042;-38
2021/08/26 02:54:26;;;;;;;90.97;14.77;;;;;;;;;;5011966;28;20570;-38
2021/08/26 02:56:52;;;;;;;91.43;13.75;;;;;;;;;;5011636;28;20026;-38
2021/08/26 02:59:19;;;;;;;81.13;13.85;;;;;;;;;;5012124;28;20104;-37
2021/08/26 03:01:46;;;;;;;77.53;13.40;;;;;;;;;;5011799;28;20037;-37
2021/08/26 03:04:13;;;;;;;77.43;14.68;;;;;;;;;;5011952;28;20389;-36
2021/08/26 03:06:40;;;;;;;82.60;13.30;;;;;;;;;;4999161;28;20034;-39
2021/08/26 03:09:07;;;;;;;95.15;14.05;;;;;;;;;;5009628;28;20101;-38
2021/08/26 03:11:34;;;;;;;71.55;12.13;;;;;;;;;;5001495;28;20034;-36
2021/08/26 03:14:02;;;;;;;77.55;12.05;;;;;;;;;;5007985;28;20115;-37
2021/08/26 03:16:29;;;;;;;82.25;12.63;;;;;;;;;;5011177;28;20493;-37
2021/08/26 03:18:56;;;;;;;63.35;11.82;;;;;;;;;;5011356;28;20253;-34
2021/08/26 03:21:23;;;;;;;71.07;12.20;;;;;;;;;;5010109;28;20493;-41
2021/08/26 03:23:50;;;;;;;55.40;10.98;;;;;;;;;;5011329;28;20041;-38
2021/08/26 03:26:17;;;;;;;71.22;11.50;;;;;;;;;;5010700;28;20023;-36
2021/08/26 03:28:44;;;;;;;56.22;10.52;;;;;;;;;;5011507;28;20048;-36
2021/08/26 03:31:11;;;;;;;59.47;10.45;;;;;;;;;;5010764;28;20026;-39
2021/08/26 03:33:38;;;;;;;61.45;11.32;;;;;;;;;;4995831;28;20019;-38
2021/08/26 03:36:05;;;;;;;51.42;10.20;;;;;;;;;;5007437;28;20033;-36
2021/08/26 03:38:32;;;;;;;58.33;10.63;;;;;;;;;;5011078;28;20018;-36
2021/08/26 03:40:59;;;;;;;53.90;11.15;;;;;;;;;;5011540;28;20014;-36
2021/08/26 03:43:26;;;;;;;55.95;9.82;;;;;;;;;;5010738;28;20042;-39
2021/08/26 03:45:53;;;;;;;45.53;9.20;;;;;;;;;;5011508;28;20022;-38
2021/08/26 03:48:20;;;;;;;68.05;9.50;;;;;;;;;;5010854;28;20057;-36
2021/08/26 03:50:47;;;;;;;56.03;9.52;;;;;;;;;;5011088;28;20014;-39
2021/08/26 03:53:14;;;;;;;55.15;9.38;;;;;;;;;;5009382;28;20070;-39
2021/08/26 03:55:41;;;;;;;41.60;8.35;;;;;;;;;;5011373;28;20018;-36
2021/08/26 03:58:08;;;;;;;46.35;9.48;;;;;;;;;;5010714;28;20022;-37
2021/08/26 04:00:35;;;;;;;44.95;9.20;;;;;;;;;;5009925;28;20064;-38
2021/08/26 04:03:02;;;;;;;42.55;9.15;;;;;;;;;;5011320;28;20077;-37
2021/08/26 04:05:29;;;;;;;53.28;9.77;;;;;;;;;;5010285;28;20018;-36
2021/08/26 04:07:56;;;;;;;46.78;8.45;;;;;;;;;;5011039;28;20030;-39
2021/08/26 04:10:23;;;;;;;41.05;8.18;;;;;;;;;;5014091;28;20362;-37
2021/08/26 04:12:50;;;;;;;39.65;8.30;;;;;;;;;;5014752;28;20350;-39
2021/08/26 04:15:17;;;;;;;34.42;7.43;;;;;;;;;;5014150;28;20385;-36
2021/08/26 04:17:44;;;;;;;43.10;8.18;;;;;;;;;;5014155;28;20064;-42
2021/08/26 04:20:11;;;;;;;40.72;7.60;;;;;;;;;;5014301;28;20366;-37
2021/08/26 04:22:38;;;;;;;34.15;7.15;;;;;;;;;;5013497;28;20030;-39
2021/08/26 04:25:06;;;;;;;36.15;7.00;;;;;;;;;;5014230;28;20069;-45
2021/08/26 04:27:33;;;;;;;32.90;6.53;;;;;;;;;;5012166;28;20517;-42
2021/08/26 04:30:00;;;;;;;28.58;6.38;;;;;;;;;;5014152;28;20069;-41
2021/08/26 04:32:27;;;;;;;41.03;6.45;;;;;;;;;;5013956;28;20026;-40
2021/08/26 04:34:54;;;;;;;36.47;7.03;;;;;;;;;;5013504;28;20053;-41
2021/08/26 04:37:21;;;;;;;36.38;7.25;;;;;;;;;;5013715;28;20504;-37
2021/08/26 04:39:48;;;;;;;32.97;6.18;;;;;;;;;;5013388;28;20106;-41
2021/08/26 04:42:15;;;;;;;34.38;6.90;;;;;;;;;;5014106;28;20033;-39
2021/08/26 04:44:42;;;;;;;29.42;5.68;;;;;;;;;;5013351;28;20044;-50
2021/08/26 04:47:09;;;;;;;27.08;6.32;;;;;;;;;;5013973;28;20511;-48
2021/08/26 04:49:36;;;;;;;34.15;6.22;;;;;;;;;;5013227;28;20034;-49
2021/08/26 04:52:03;;;;;;;30.42;6.35;;;;;;;;;;5013657;28;20018;-50
2021/08/26 04:54:30;;;;;;;24.65;5.03;;;;;;;;;;5013553;28;20033;-47
2021/08/26 04:56:57;;;;;;;28.40;6.35;;;;;;;;;;5013135;28;20026;-53
2021/08/26 04:59:24;;;;;;;30.92;5.90;;;;;;;;;;5012127;28;20030;-42
2021/08/26 05:01:51;;;;;;;24.98;5.20;;;;;;;;;;5012901;28;20719;-50
2021/08/26 05:04:23;;;;;;;25.85;5.47;;;;;;;;;;5013480;28;20470;-47
2021/08/26 05:06:53;;;;;;;21.67;5.25;;;;;;;;;;5011827;28;20508;-45
2021/08/26 05:09:20;;;;;;;19.95;5.18;;;;;;;;;;5000212;28;20481;-46
2021/08/26 05:11:47;;;;;;;26.23;5.57;;;;;;;;;;5013548;28;20018;-36
2021/08/26 05:14:14;;;;;;;22.65;4.75;;;;;;;;;;5012776;28;20061;-36
2021/08/26 05:16:41;;;;;;;22.40;5.05;;;;;;;;;;5013451;28;20022;-37
2021/08/26 05:19:08;;;;;;;22.30;4.88;;;;;;;;;;5012038;28;20378;-36
2021/08/26 05:21:35;;;;;;;23.20;5.03;;;;;;;;;;4994835;28;20470;-37
2021/08/26 05:24:02;;;;;;;21.65;5.05;;;;;;;;;;4990051;28;20030;-38
2021/08/26 05:26:29;;;;;;;18.77;4.63;;;;;;;;;;4993180;28;20723;-44
2021/08/26 05:28:56;;;;;;;20.27;4.22;;;;;;;;;;5007365;28;20046;-44
2021/08/26 05:31:23;;;;;;;17.55;4.63;;;;;;;;;;4993290;28;20069;-39
2021/08/26 05:33:51;;;;;;;25.42;4.80;;;;;;;;;;5011204;28;20033;-36
2021/08/26 05:36:18;;;;;;;19.17;3.92;;;;;;;;;;5012001;28;20025;-38
2021/08/26 05:38:45;;;;;;;21.35;4.60;;;;;;;;;;5012466;28;20026;-38
2021/08/26 05:41:12;;;;;;;22.02;4.63;;;;;;;;;;5012643;28;20358;-35
2021/08/26 05:43:39;;;;;;;18.75;4.38;;;;;;;;;;5012671;28;20026;-36
2021/08/26 05:46:07;;;;;;;18.25;4.78;;;;;;;;;;5011123;28;20025;-36
2021/08/26 05:48:34;;;;;;;16.75;3.92;;;;;;;;;;5011185;28;20470;-38
2021/08/26 05:51:01;;;;;;;15.13;3.92;;;;;;;;;;5011838;28;20021;-37
2021/08/26 05:53:28;;;;;;;16.60;4.10;;;;;;;;;;5012460;28;20026;-35
2021/08/26 05:55:55;;;;;;;13.32;3.83;;;;;;;;;;5012535;28;20014;-37
2021/08/26 05:58:22;;;;;;;17.70;3.97;;;;;;;;;;5012216;28;20022;-36
2021/08/26 06:00:50;;;;;;;19.90;4.10;;;;;;;;;;5012494;28;20352;-39
2021/08/26 06:03:17;;;;;;;13.93;3.10;;;;;;;;;;5011751;28;20037;-39
2021/08/26 06:05:44;;;;;;;19.63;4.22;;;;;;;;;;5012249;28;20018;-36
2021/08/26 06:08:11;;;;;;;13.73;3.22;;;;;;;;;;5012148;28;20053;-34
2021/08/26 06:10:38;;;;;;;17.88;3.80;;;;;;;;;;5011980;28;20028;-34
2021/08/26 06:13:06;;;;;;;13.77;3.63;;;;;;;;;;5012066;28;20014;-34
2021/08/26 06:15:33;;;;;;;16.65;3.63;;;;;;;;;;5012054;28;20033;-36
2021/08/26 06:18:00;;;;;;;13.63;3.72;;;;;;;;;;5011665;28;20018;-35
2021/08/26 06:20:27;;;;;;;17.60;3.75;;;;;;;;;;5012013;28;20465;-36
2021/08/26 06:22:54;;;;;;;13.13;2.90;;;;;;;;;;5012188;28;20365;-36
2021/08/26 06:25:21;;;;;;;14.13;3.50;;;;;;;;;;5011058;28;20456;-36
2021/08/26 06:27:48;;;;;;;12.88;3.42;;;;;;;;;;5012208;28;20026;-36
2021/08/26 06:30:15;;;;;;;13.48;3.47;;;;;;;;;;5009278;28;20041;-38
2021/08/26 06:32:42;;;;;;;12.98;3.35;;;;;;;;;;5011306;28;20030;-39
2021/08/26 06:35:09;;;;;;;18.90;3.80;;;;;;;;;;5011132;28;20056;-36
2021/08/26 06:37:36;;;;;;;13.82;3.15;;;;;;;;;;5011939;28;20521;-38
2021/08/26 06:40:03;;;;;;;12.95;3.28;;;;;;;;;;5011807;28;20473;-37
2021/08/26 06:42:30;;;;;;;17.80;3.85;;;;;;;;;;5011681;28;20026;-37
2021/08/26 06:44:57;;;;;;;11.90;2.83;;;;;;;;;;5011778;28;20033;-41
2021/08/26 06:47:24;;;;;;;8.98;2.70;;;;;;;;;;5011119;28;20037;-38
2021/08/26 06:49:51;;;;;;;11.25;3.65;;;;;;;;;;5011711;28;20029;-37
2021/08/26 06:52:18;;;;;;;11.70;3.17;;;;;;;;;;5011413;28;20026;-36
2021/08/26 06:54:45;;;;;;;8.45;2.60;;;;;;;;;;5011704;28;20097;-35
2021/08/26 06:57:12;;;;;;;13.13;2.83;;;;;;;;;;5011426;28;20018;-36
2021/08/26 06:59:39;;;;;;;11.50;3.35;;;;;;;;;;5011530;28;20026;-38
2021/08/26 07:02:06;;;;;;;10.02;2.60;;;;;;;;;;5011211;28;20080;-35
2021/08/26 07:04:33;;;;;;;7.85;2.40;;;;;;;;;;5011575;28;20041;-35
2021/08/26 07:07:00;;;;;;;8.75;2.42;;;;;;;;;;5011424;28;20014;-36
2021/08/26 07:09:27;;;;;;;11.48;2.63;;;;;;;;;;5011145;28;20071;-40
2021/08/26 07:11:55;;;;;;;10.35;2.50;;;;;;;;;;5011548;28;20034;-36
2021/08/26 07:14:22;;;;;;;12.27;2.63;;;;;;;;;;5011229;28;20090;-36
2021/08/26 07:16:49;;;;;;;11.82;2.70;;;;;;;;;;5011416;28;20026;-40
2021/08/26 07:19:16;;;;;;;7.10;2.42;;;;;;;;;;5011175;28;20022;-52
2021/08/26 07:21:44;;;;;;;8.20;2.30;;;;;;;;;;5011476;28;20025;-46
2021/08/26 07:24:11;;;;;;;10.82;2.75;;;;;;;;;;5010971;28;20033;-42
2021/08/26 07:26:37;;;;;;;7.57;2.17;;;;;;;;;;5011622;28;20018;-49
2021/08/26 07:29:04;;;;;;;9.25;2.75;;;;;;;;;;5011213;28;20081;-37
2021/08/26 07:31:31;;;;;;;7.30;2.25;;;;;;;;;;5010662;28;20053;-38
2021/08/26 07:33:58;;;;;;;8.88;2.83;;;;;;;;;;5011376;28;20064;-45
2021/08/26 07:36:25;;;;;;;11.27;2.60;;;;;;;;;;5010873;28;20389;-50
2021/08/26 07:38:53;;;;;;;5.80;2.10;;;;;;;;;;5009819;28;20065;-44
2021/08/26 07:41:20;;;;;;;8.77;2.88;;;;;;;;;;5010697;28;20040;-47
2021/08/26 07:43:47;;;;;;;8.80;2.30;;;;;;;;;;5014434;28;20128;-43
2021/08/26 07:46:14;;;;;;;9.60;2.70;;;;;;;;;;5014873;28;20049;-41
2021/08/26 07:48:41;;;;;;;7.05;2.17;;;;;;;;;;5014692;28;20084;-44
2021/08/26 07:51:08;;;;;;;11.13;2.67;;;;;;;;;;5014646;28;20073;-47
2021/08/26 07:53:36;;;;;;;8.52;2.10;;;;;;;;;;5014533;28;20029;-36
2021/08/26 07:56:03;;;;;;;10.35;1.90;;;;;;;;;;5014715;28;20028;-36
2021/08/26 07:58:31;;;;;;;7.38;1.88;;;;;;;;;;5013146;28;20049;-48
2021/08/26 08:00:59;;;;;;;7.35;2.35;;;;;;;;;;5014457;28;20030;-46
2021/08/26 08:03:26;;;;;;;6.05;2.38;;;;;;;;;;5014389;28;20087;-36
2021/08/26 08:05:53;;;;;;;6.45;2.00;;;;;;;;;;5014927;28;20018;-38
2021/08/26 08:08:20;;;;;;;7.47;2.05;;;;;;;;;;5014144;28;20492;-35
2021/08/26 08:10:47;;;;;;;9.30;2.30;;;;;;;;;;5014544;28;20570;-36
2021/08/26 08:13:14;;;;;;;10.18;2.25;;;;;;;;;;5014182;28;20030;-38
2021/08/26 08:15:43;;;;;;;3.92;1.65;;;;;;;;;;5013916;28;20499;-38
2021/08/26 08:18:10;;;;;;;7.88;2.22;;;;;;;;;;5014389;28;20568;-36
2021/08/26 08:20:37;;;;;;;10.32;1.77;;;;;;;;;;5012859;28;20026;-38
2021/08/26 08:23:04;;;;;;;5.90;1.85;;;;;;;;;;5014185;28;20503;-35
2021/08/26 08:25:31;;;;;;;7.78;1.98;;;;;;;;;;5013832;28;20068;-37
2021/08/26 08:27:58;;;;;;;8.35;3.13;;;;;;;;;;5014467;28;20026;-37
2021/08/26 08:30:29;;;;;;;7.13;2.22;;;;;;;;;;5013421;28;20129;-36
2021/08/26 08:32:58;;;;;;;8.10;2.35;;;;;;;;;;5014075;28;20018;-34
2021/08/26 08:35:25;;;;;;;7.05;2.00;;;;;;;;;;5013901;28;20034;-36
2021/08/26 08:37:52;;;;;;;8.63;2.03;;;;;;;;;;5011359;28;20080;-38
2021/08/26 08:40:19;;;;;;;7.45;2.00;;;;;;;;;;5013230;28;20041;-39
2021/08/26 08:42:46;;;;;;;5.28;1.75;;;;;;;;;;5009255;28;20113;-38
2021/08/26 08:45:13;;;;;;;8.40;1.83;;;;;;;;;;5006078;28;20080;-39
2021/08/26 08:47:41;;;;;;;7.72;2.20;;;;;;;;;;5011822;28;20022;-41
2021/08/26 08:50:08;;;;;;;5.45;1.58;;;;;;;;;;5014062;28;20041;-38
2021/08/26 08:52:38;;;;;;;6.38;1.95;;;;;;;;;;5008757;28;20105;-38
2021/08/26 08:55:07;;;;;;;4.88;1.50;;;;;;;;;;5012800;28;20470;-38
2021/08/26 08:57:37;;;;;;;9.10;1.80;;;;;;;;;;5010157;28;20040;-47
2021/08/26 09:00:08;;;;;;;7.00;1.70;;;;;;;;;;5012570;28;20028;-36
2021/08/26 09:02:35;;;;;;;6.30;1.98;;;;;;;;;;5012906;28;20025;-38
2021/08/26 09:05:03;;;;;;;6.03;2.00;;;;;;;;;;5012863;28;20022;-38
2021/08/26 09:07:31;;;;;;;4.32;1.63;;;;;;;;;;5013383;28;20041;-39
2021/08/26 09:09:58;;;;;;;4.50;1.60;;;;;;;;;;5012803;28;20026;-42
2021/08/26 09:12:44;;;;;;;4.35;1.27;;;;;;;;;;5013005;28;20034;-38
2021/08/26 09:15:12;;;;;;;6.13;1.75;;;;;;;;;;5012677;28;20053;-36
2021/08/26 09:17:39;;;;;;;4.45;1.85;;;;;;;;;;5013143;28;20026;-36
2021/08/26 09:20:07;;;;;;;4.57;1.58;;;;;;;;;;5012667;28;20084;-36
2021/08/26 09:22:34;;;;;;;3.75;1.45;;;;;;;;;;5012765;28;20025;-40
2021/08/26 09:25:01;;;;;;;4.43;1.70;;;;;;;;;;5012326;28;20069;-40
2021/08/26 09:27:34;;;;;;;4.60;1.77;;;;;;;;;;5013225;28;20022;-37
2021/08/26 09:30:16;;;;;;;4.28;1.60;;;;;;;;;;5006149;28;20061;-35
2021/08/26 09:32:47;;;;;;;4.65;1.60;;;;;;;;;;5008143;28;20071;-36
2021/08/26 09:35:27;;;;;;;5.60;1.67;;;;;;;;;;5011441;28;20481;-36
2021/08/26 09:37:57;;;;;;;4.03;1.52;;;;;;;;;;5012014;28;20477;-36
2021/08/26 09:40:29;;;;;;;5.38;1.80;;;;;;;;;;5012958;28;20022;-37
2021/08/26 09:43:01;;;;;;;5.43;1.38;;;;;;;;;;5011839;28;20061;-37
2021/08/26 09:45:29;;;;;;;7.78;2.10;;;;;;;;;;5011515;28;20064;-36
2021/08/26 09:48:00;;;;;;;7.95;1.60;;;;;;;;;;5011622;28;20257;-36
2021/08/26 09:50:36;;;;;;;6.05;1.40;;;;;;;;;;5013066;28;20495;-36
2021/08/26 09:53:03;;;;;;;4.13;1.30;;;;;;;;;;5011843;28;20029;-35
2021/08/26 09:55:49;;;;;;;6.55;1.35;;;;;;;;;;5012556;28;20552;-35
2021/08/26 09:58:16;;;;;;;5.95;1.67;;;;;;;;;;5011712;28;20029;-45
2021/08/26 10:00:43;;;;;;;6.38;1.50;;;;;;;;;;5012796;28;20068;-34
2021/08/26 10:03:16;;;;;;;3.95;1.38;;;;;;;;;;5008393;28;20057;-37
2021/08/26 10:05:45;;;;;;;4.07;1.48;;;;;;;;;;5010605;28;20037;-36
2021/08/26 10:08:12;;;;;;;6.28;1.52;;;;;;;;;;5007621;28;20496;-37
2021/08/26 10:10:40;;;;;;;4.55;1.95;;;;;;;;;;5010312;28;20489;-35
2021/08/26 10:13:07;;;;;;;6.60;1.63;;;;;;;;;;5010431;28;20026;-37
2021/08/26 10:15:35;;;;;;;6.35;1.50;;;;;;;;;;5011898;28;20385;-36
2021/08/26 10:18:02;;;;;;;4.43;1.30;;;;;;;;;;5012094;28;20072;-37
2021/08/26 10:20:29;;;;;;;5.93;1.67;;;;;;;;;;5012085;28;20477;-35
2021/08/26 10:22:57;;;;;;;6.45;1.70;;;;;;;;;;5011659;28;20103;-38
2021/08/26 10:25:24;;;;;;;4.82;1.45;;;;;;;;;;5011959;28;20030;-36
2021/08/26 10:27:52;;;;;;;3.97;1.52;;;;;;;;;;4990903;28;20045;-37
2021/08/26 10:30:33;;;;;;;4.53;1.40;;;;;;;;;;5011613;28;20498;-38
2021/08/26 10:33:10;;;;;;;5.30;1.90;;;;;;;;;;5011513;28;20034;-36
2021/08/26 10:35:53;;;;;;;5.38;1.33;;;;;;;;;;4999661;28;20508;-38
2021/08/26 10:38:22;;;;;;;6.03;1.40;;;;;;;;;;5011414;28;20022;-39
2021/08/26 10:40:49;;;;;;;3.53;1.30;;;;;;;;;;5011843;28;20358;-37
2021/08/26 10:43:35;;;;;;;11.48;1.63;;;;;;;;;;5011253;28;20493;-37
2021/08/26 10:46:03;;;;;;;5.53;1.42;;;;;;;;;;5011945;28;20022;-38
2021/08/26 10:48:30;;;;;;;9.93;1.75;;;;;;;;;;5011238;28;20018;-37
2021/08/26 10:51:05;;;;;;;8.05;1.55;;;;;;;;;;5010340;28;20025;-37
2021/08/26 10:53:33;;;;;;;8.02;1.67;;;;;;;;;;5011127;28;20045;-36
2021/08/26 10:56:20;;;;;;;4.45;1.42;;;;;;;;;;5011682;28;20022;-37
2021/08/26 10:58:51;;;;;;;9.43;1.67;;;;;;;;;;4998066;28;20370;-36
2021/08/26 11:01:30;;;;;;;4.03;1.42;;;;;;;;;;5011666;28;20492;-39
2021/08/26 11:03:59;;;;;;;3.95;1.52;;;;;;;;;;5011077;28;20073;-36
2021/08/26 11:06:29;;;;;;;10.07;1.65;;;;;;;;;;5011587;28;20050;-36
2021/08/26 11:09:19;;;;;;;12.70;1.63;;;;;;;;;;5011533;28;20109;-38
2021/08/26 11:11:47;;;;;;;9.02;1.70;;;;;;;;;;5000543;28;20036;-36
2021/08/26 11:14:17;;;;;;;11.45;1.88;;;;;;;;;;5011376;28;20474;-36
2021/08/26 11:16:45;;;;;;;16.08;2.10;;;;;;;;;;5011369;28;20026;-38
2021/08/26 11:19:12;;;;;;;10.27;1.95;;;;;;;;;;5015572;28;20025;-36
2021/08/26 11:21:43;;;;;;;9.88;1.75;;;;;;;;;;5014966;28;20026;-38
2021/08/26 11:24:10;;;;;;;10.80;1.70;;;;;;;;;;5015218;28;20060;-36
2021/08/26 11:26:44;;;;;;;13.38;1.83;;;;;;;;;;5014814;28;20080;-36
2021/08/26 11:29:23;;;;;;;9.80;2.38;;;;;;;;;;5001010;28;20521;-35
2021/08/26 11:32:02;;;;;;;12.70;1.90;;;;;;;;;;5014394;28;20086;-38
2021/08/26 11:34:37;;;;;;;14.40;2.22;;;;;;;;;;5014410;28;20030;-36
2021/08/26 11:37:28;;;;;;;15.55;3.00;;;;;;;;;;5013867;28;20029;-36
2021/08/26 11:40:00;;;;;;;21.42;2.05;;;;;;;;;;5001639;28;20065;-40
2021/08/26 11:42:32;;;;;;;34.40;3.47;;;;;;;;;;5010689;28;20048;-39
2021/08/26 11:45:14;;;;;;;119.75;10.15;;;;;;;;;;5013020;28;20508;-41
2021/08/26 11:47:43;;;;;;;136.75;9.80;;;;;;;;;;5012214;28;20076;-38
2021/08/26 11:50:11;;;;;;;109.95;11.20;;;;;;;;;;5013455;28;20030;-38
2021/08/26 11:52:39;;;;;;;127.00;11.13;;;;;;;;;;5014105;28;20100;-38
2021/08/26 11:55:06;;;;;;;72.90;7.65;;;;;;;;;;5013596;28;20030;-42
2021/08/26 11:57:33;;;;;;;49.78;5.85;;;;;;;;;;5005111;28;20076;-41
2021/08/26 12:00:20;;;;;;;49.97;5.65;;;;;;;;;;4997993;28;20017;-38
2021/08/26 12:02:51;;;;;;;43.65;4.50;;;;;;;;;;5000473;28;20096;-38
2021/08/26 12:05:18;;;;;;;33.83;4.70;;;;;;;;;;5011357;28;20026;-43
2021/08/26 12:07:46;;;;;;;40.97;4.93;;;;;;;;;;5010142;28;20017;-41
2021/08/26 12:10:18;;;;;;;30.08;5.15;;;;;;;;;;5006959;28;20025;-42
2021/08/26 12:12:45;;;;;;;;;;;;;;;;;;5009469;28;20017;-41
2021/08/26 12:15:17;;;;;;;13.68;3.00;;;;;;;;;;5027468;28;19972;-41
2021/08/26 12:17:45;;;;;;;21.17;3.42;;;;;;;;;;4995752;28;20532;-41
2021/08/26 12:20:12;;;;;;;25.30;3.33;;;;;;;;;;5007795;28;20022;-50
2021/08/26 12:22:43;;;;;;;27.17;3.83;;;;;;;;;;5013420;28;20041;-45
2021/08/26 12:25:10;;;;;;;30.92;3.85;;;;;;;;;;5012908;28;20084;-42
2021/08/26 12:27:37;;;;;;;22.25;3.33;;;;;;;;;;5004404;28;20026;-49
2021/08/26 12:30:04;;;;;;;34.03;3.90;;;;;;;;;;5010869;28;20054;-39
2021/08/26 12:32:32;;;;;;;29.15;4.80;;;;;;;;;;5012112;28;20116;-39
2021/08/26 12:35:14;;;;;;;37.40;6.30;;;;;;;;;;5013451;28;20097;-45
2021/08/26 12:37:58;;;;;;;31.60;3.85;;;;;;;;;;5012590;28;20450;-40
2021/08/26 12:40:26;;;;;;;28.80;4.65;;;;;;;;;;5013600;28;20018;-41
2021/08/26 12:42:57;;;;;;;15.57;2.58;;;;;;;;;;5012072;28;20037;-40
2021/08/26 12:45:24;;;;;;;25.63;3.17;;;;;;;;;;5013464;28;20022;-38
2021/08/26 12:47:51;;;;;;;40.97;4.18;;;;;;;;;;5012552;28;20119;-37
2021/08/26 12:50:31;;;;;;;17.17;2.63;;;;;;;;;;5013115;28;20505;-37
2021/08/26 12:52:58;;;;;;;16.63;2.40;;;;;;;;;;5012042;28;20021;-37
2021/08/26 12:55:26;;;;;;;11.27;2.50;;;;;;;;;;5013213;28;20504;-39
2021/08/26 12:58:12;;;;;;;30.63;4.65;;;;;;;;;;5012327;28;20023;-39
2021/08/26 13:00:40;;;;;;;16.23;2.90;;;;;;;;;;5012676;28;20026;-43
2021/08/26 13:03:07;;;;;;;15.35;2.65;;;;;;;;;;5011268;28;20128;-39
2021/08/26 13:05:47;;;;;;;13.95;2.70;;;;;;;;;;5013000;28;20083;-39
2021/08/26 13:08:15;;;;;;;23.05;2.75;;;;;;;;;;5010534;28;20034;-38
2021/08/26 13:10:42;;;;;;;30.55;3.83;;;;;;;;;;5012829;28;20210;-39
2021/08/26 13:13:09;;;;;;;18.73;3.00;;;;;;;;;;5012454;28;20041;-38
2021/08/26 13:15:36;;;;;;;20.73;3.13;;;;;;;;;;5011664;28;20117;-39
2021/08/26 13:18:04;;;;;;;15.98;2.72;;;;;;;;;;5011964;28;20761;-39
2021/08/26 13:20:31;;;;;;;17.73;2.72;;;;;;;;;;5012630;28;20034;-41
2021/08/26 13:22:58;;;;;;;15.48;2.13;;;;;;;;;;5012661;28;20430;-38
2021/08/26 13:25:25;;;;;;;17.13;3.80;;;;;;;;;;5010972;28;20029;-40
2021/08/26 13:27:52;;;;;;;17.15;3.22;;;;;;;;;;5012299;28;20041;-38
2021/08/26 13:30:19;;;;;;;18.23;3.05;;;;;;;;;;5011709;28;20540;-40
2021/08/26 13:32:46;;;;;;;23.35;2.85;;;;;;;;;;5012135;28;20037;-42
2021/08/26 13:35:13;;;;;;;23.48;2.97;;;;;;;;;;5011670;28;20057;-39
2021/08/26 13:37:42;;;;;;;12.27;2.72;;;;;;;;;;5011507;28;20034;-41
2021/08/26 13:40:12;;;;;;;20.67;3.20;;;;;;;;;;5011814;28;20119;-48
2021/08/26 13:42:39;;;;;;;18.08;2.75;;;;;;;;;;5007552;28;20044;-38
2021/08/26 13:45:07;;;;;;;16.15;2.92;;;;;;;;;;5007664;28;20045;-37
2021/08/26 13:47:37;;;;;;;25.38;3.17;;;;;;;;;;5010388;28;20144;-37
2021/08/26 13:50:04;;;;;;;27.90;3.33;;;;;;;;;;5010993;28;20521;-38
2021/08/26 13:52:31;;;;;;;14.80;2.58;;;;;;;;;;5003504;28;20037;-37
2021/08/26 13:54:59;;;;;;;17.95;2.97;;;;;;;;;;5011520;28;20022;-40
2021/08/26 13:57:26;;;;;;;21.23;2.60;;;;;;;;;;5009796;28;20044;-39
2021/08/26 13:59:53;;;;;;;25.23;2.55;;;;;;;;;;5010641;28;20021;-39
2021/08/26 14:02:20;;;;;;;20.98;2.65;;;;;;;;;;5011480;28;20033;-39
2021/08/26 14:04:47;;;;;;;31.75;3.55;;;;;;;;;;5010731;28;20038;-41
2021/08/26 14:07:14;;;;;;;21.02;2.83;;;;;;;;;;5007672;28;20397;-40
2021/08/26 14:09:41;;;;;;;23.73;4.28;;;;;;;;;;5008991;28;20032;-40
2021/08/26 14:12:08;;;;;;;50.38;5.70;;;;;;;;;;5011504;28;20106;-45
2021/08/26 14:14:35;;;;;;;23.42;3.63;;;;;;;;;;5010163;28;20026;-38
2021/08/26 14:17:02;;;;;;;41.53;4.53;;;;;;;;;;5010951;28;20022;-40
2021/08/26 14:19:29;;;;;;;35.65;3.92;;;;;;;;;;5010116;28;20022;-38
2021/08/26 14:21:56;;;;;;;39.00;4.10;;;;;;;;;;5011771;28;20501;-41
2021/08/26 14:24:23;;;;;;;38.42;3.60;;;;;;;;;;5010498;28;20041;-41
2021/08/26 14:26:50;;;;;;;35.55;4.20;;;;;;;;;;5011317;28;20018;-41
2021/08/26 14:29:17;;;;;;;38.97;3.78;;;;;;;;;;5010009;28;20078;-42
2021/08/26 14:31:44;;;;;;;38.60;4.70;;;;;;;;;;5010503;28;20064;-42
2021/08/26 14:34:11;;;;;;;60.28;5.40;;;;;;;;;;5010767;28;20079;-41
2021/08/26 14:36:38;;;;;;;45.85;4.47;;;;;;;;;;5008463;28;20028;-39
2021/08/26 14:39:05;;;;;;;54.33;4.85;;;;;;;;;;5010826;28;20021;-43